sensor_id;sensor_type;location;lat;lon;timestamp;temperature;humidity
4487;DHT22;2256;48.740;9.106;2022-09-09T00:02:16;14.90;99.90
4487;DHT22;2256;48.740;9.106;2022-09-09T00:04:51;14.90;99.90
4487;DHT22;2256;48.740;9.106;2022-09-09T00:07:24;14.90;99.90
4487;DHT22;2256;48.740;9.106;2022-09-09T00:10:00;15.00;99.90
4487;DHT22;2256;48.740;9.106;2022-09-09T00:12:41;14.90;99.90
4487;DHT22;2256;48.740;9.106;2022-09-09T00:15:13;14.90;99.90
4487;DHT22;2256;48.740;9.106;2022-09-09T00:17:45;14.80;99.90
4487;DHT22;2256;48.740;9.106;2022-09-09T00:20:19;15.00;99.90
4487;DHT22;2256;48.740;9.106;2022-09-09T00:22:55;15.00;99.90
4487;DHT22;2256;48.740;9.106;2022-09-09T00:25:32;15.00;99.90
4487;DHT22;2256;48.740;9.106;2022-09-09T00:28:02;15.10;99.90
4487;DHT22;2256;48.740;9.106;2022-09-09T00:30:31;14.90;99.90
4487;DHT22;2256;48.740;9.106;2022-09-09T00:33:09;15.20;99.90
4487;DHT22;2256;48.740;9.106;2022-09-09T00:35:44;15.40;99.90
4487;DHT22;2256;48.740;9.106;2022-09-09T00:38:14;15.30;99.90
4487;DHT22;2256;48.740;9.106;2022-09-09T00:40:48;15.50;99.90
4487;DHT22;2256;48.740;9.106;2022-09-09T00:43:25;15.30;99.90
4487;DHT22;2256;48.740;9.106;2022-09-09T00:48:51;15.50;99.90
4487;DHT22;2256;48.740;9.106;2022-09-09T00:51:28;15.60;99.90
4487;DHT22;2256;48.740;9.106;2022-09-09T00:54:09;15.70;99.90
4487;DHT22;2256;48.740;9.106;2022-09-09T00:56:46;15.80;99.90
4487;DHT22;2256;48.740;9.106;2022-09-09T00:59:23;15.80;99.90
4487;DHT22;2256;48.740;9.106;2022-09-09T01:01:51;15.80;99.90
4487;DHT22;2256;48.740;9.106;2022-09-09T01:04:25;15.70;99.90
4487;DHT22;2256;48.740;9.106;2022-09-09T01:07:01;15.70;99.90
4487;DHT22;2256;48.740;9.106;2022-09-09T01:09:33;15.60;99.90
4487;DHT22;2256;48.740;9.106;2022-09-09T01:12:09;15.60;99.90
4487;DHT22;2256;48.740;9.106;2022-09-09T01:14:41;15.50;99.90
4487;DHT22;2256;48.740;9.106;2022-09-09T01:17:14;15.50;99.90
4487;DHT22;2256;48.740;9.106;2022-09-09T01:19:55;15.50;99.90
4487;DHT22;2256;48.740;9.106;2022-09-09T01:22:31;15.40;99.90
4487;DHT22;2256;48.740;9.106;2022-09-09T01:25:22;15.50;99.90
4487;DHT22;2256;48.740;9.106;2022-09-09T01:27:55;15.50;99.90
4487;DHT22;2256;48.740;9.106;2022-09-09T01:30:23;15.50;99.90
4487;DHT22;2256;48.740;9.106;2022-09-09T01:32:54;15.50;99.90
4487;DHT22;2256;48.740;9.106;2022-09-09T01:35:29;15.50;99.90
4487;DHT22;2256;48.740;9.106;2022-09-09T01:37:58;15.40;99.90
4487;DHT22;2256;48.740;9.106;2022-09-09T01:40:25;15.40;99.90
4487;DHT22;2256;48.740;9.106;2022-09-09T01:42:54;15.30;99.90
4487;DHT22;2256;48.740;9.106;2022-09-09T01:45:22;15.30;99.90
4487;DHT22;2256;48.740;9.106;2022-09-09T01:47:51;15.30;99.90
4487;DHT22;2256;48.740;9.106;2022-09-09T01:50:18;15.30;99.90
4487;DHT22;2256;48.740;9.106;2022-09-09T01:52:48;15.40;99.90
4487;DHT22;2256;48.740;9.106;2022-09-09T01:55:16;15.40;99.90
4487;DHT22;2256;48.740;9.106;2022-09-09T01:57:46;15.40;99.90
4487;DHT22;2256;48.740;9.106;2022-09-09T02:00:15;15.50;99.90
4487;DHT22;2256;48.740;9.106;2022-09-09T02:02:48;15.50;99.90
4487;DHT22;2256;48.740;9.106;2022-09-09T02:05:28;15.50;99.90
4487;DHT22;2256;48.740;9.106;2022-09-09T02:08:00;15.40;99.90
4487;DHT22;2256;48.740;9.106;2022-09-09T02:10:33;15.40;99.90
4487;DHT22;2256;48.740;9.106;2022-09-09T02:13:07;15.50;99.90
4487;DHT22;2256;48.740;9.106;2022-09-09T02:15:43;15.50;99.90
4487;DHT22;2256;48.740;9.106;2022-09-09T02:18:12;15.50;99.90
4487;DHT22;2256;48.740;9.106;2022-09-09T02:20:41;15.40;99.90
4487;DHT22;2256;48.740;9.106;2022-09-09T02:23:09;15.50;99.90
4487;DHT22;2256;48.740;9.106;2022-09-09T02:25:37;15.30;99.90
4487;DHT22;2256;48.740;9.106;2022-09-09T02:28:07;15.30;99.90
4487;DHT22;2256;48.740;9.106;2022-09-09T02:30:38;15.30;99.90
4487;DHT22;2256;48.740;9.106;2022-09-09T02:33:07;15.20;99.90
4487;DHT22;2256;48.740;9.106;2022-09-09T02:35:36;15.20;99.90
4487;DHT22;2256;48.740;9.106;2022-09-09T02:38:08;15.00;99.90
4487;DHT22;2256;48.740;9.106;2022-09-09T02:40:35;14.90;99.90
4487;DHT22;2256;48.740;9.106;2022-09-09T02:43:02;14.90;99.90
4487;DHT22;2256;48.740;9.106;2022-09-09T02:45:36;14.90;99.90
4487;DHT22;2256;48.740;9.106;2022-09-09T02:48:14;14.90;99.90
4487;DHT22;2256;48.740;9.106;2022-09-09T02:50:52;14.90;99.90
4487;DHT22;2256;48.740;9.106;2022-09-09T02:53:24;14.90;99.90
4487;DHT22;2256;48.740;9.106;2022-09-09T02:55:57;14.90;99.90
4487;DHT22;2256;48.740;9.106;2022-09-09T02:58:25;14.90;99.90
4487;DHT22;2256;48.740;9.106;2022-09-09T03:00:52;14.90;99.90
4487;DHT22;2256;48.740;9.106;2022-09-09T03:03:20;14.80;99.90
4487;DHT22;2256;48.740;9.106;2022-09-09T03:05:47;14.80;99.90
4487;DHT22;2256;48.740;9.106;2022-09-09T03:08:14;14.80;99.90
4487;DHT22;2256;48.740;9.106;2022-09-09T03:10:41;14.90;99.90
4487;DHT22;2256;48.740;9.106;2022-09-09T03:13:08;14.90;99.90
4487;DHT22;2256;48.740;9.106;2022-09-09T03:15:35;14.90;99.90
4487;DHT22;2256;48.740;9.106;2022-09-09T03:18:02;14.80;99.90
4487;DHT22;2256;48.740;9.106;2022-09-09T03:20:31;14.80;99.90
4487;DHT22;2256;48.740;9.106;2022-09-09T03:22:59;14.80;99.90
4487;DHT22;2256;48.740;9.106;2022-09-09T03:25:26;14.70;99.90
4487;DHT22;2256;48.740;9.106;2022-09-09T03:27:54;14.60;99.90
4487;DHT22;2256;48.740;9.106;2022-09-09T03:30:22;14.50;99.90
4487;DHT22;2256;48.740;9.106;2022-09-09T03:32:48;14.50;99.90
4487;DHT22;2256;48.740;9.106;2022-09-09T03:35:15;14.50;99.90
4487;DHT22;2256;48.740;9.106;2022-09-09T03:37:44;14.40;99.90
4487;DHT22;2256;48.740;9.106;2022-09-09T03:40:11;14.40;99.90
4487;DHT22;2256;48.740;9.106;2022-09-09T03:42:38;14.60;99.90
4487;DHT22;2256;48.740;9.106;2022-09-09T03:45:08;14.50;99.90
4487;DHT22;2256;48.740;9.106;2022-09-09T03:47:36;14.60;99.90
4487;DHT22;2256;48.740;9.106;2022-09-09T03:50:04;14.60;99.90
4487;DHT22;2256;48.740;9.106;2022-09-09T03:52:34;14.50;99.90
4487;DHT22;2256;48.740;9.106;2022-09-09T03:55:03;14.60;99.90
4487;DHT22;2256;48.740;9.106;2022-09-09T03:57:30;14.60;99.90
4487;DHT22;2256;48.740;9.106;2022-09-09T04:00:00;14.60;99.90
4487;DHT22;2256;48.740;9.106;2022-09-09T04:02:27;14.60;99.90
4487;DHT22;2256;48.740;9.106;2022-09-09T04:04:54;14.70;99.90
4487;DHT22;2256;48.740;9.106;2022-09-09T04:07:21;14.50;99.90
4487;DHT22;2256;48.740;9.106;2022-09-09T04:09:48;14.50;99.90
4487;DHT22;2256;48.740;9.106;2022-09-09T04:12:16;14.50;99.90
4487;DHT22;2256;48.740;9.106;2022-09-09T04:14:43;14.60;99.90
4487;DHT22;2256;48.740;9.106;2022-09-09T04:17:10;14.60;99.90
4487;DHT22;2256;48.740;9.106;2022-09-09T04:19:36;14.50;99.90
4487;DHT22;2256;48.740;9.106;2022-09-09T04:22:03;14.60;99.90
4487;DHT22;2256;48.740;9.106;2022-09-09T04:24:30;14.50;99.90
4487;DHT22;2256;48.740;9.106;2022-09-09T04:26:57;14.50;99.90
4487;DHT22;2256;48.740;9.106;2022-09-09T04:29:25;14.50;99.90
4487;DHT22;2256;48.740;9.106;2022-09-09T04:31:52;14.70;99.90
4487;DHT22;2256;48.740;9.106;2022-09-09T04:34:18;14.70;99.90
4487;DHT22;2256;48.740;9.106;2022-09-09T04:36:45;14.70;99.90
4487;DHT22;2256;48.740;9.106;2022-09-09T04:39:12;14.90;99.90
4487;DHT22;2256;48.740;9.106;2022-09-09T04:41:39;14.90;99.90
4487;DHT22;2256;48.740;9.106;2022-09-09T04:44:06;15.10;99.90
4487;DHT22;2256;48.740;9.106;2022-09-09T04:46:34;15.00;99.90
4487;DHT22;2256;48.740;9.106;2022-09-09T04:49:01;15.00;99.90
4487;DHT22;2256;48.740;9.106;2022-09-09T04:51:28;14.90;99.90
4487;DHT22;2256;48.740;9.106;2022-09-09T04:53:56;14.80;99.90
4487;DHT22;2256;48.740;9.106;2022-09-09T04:56:23;14.60;99.90
4487;DHT22;2256;48.740;9.106;2022-09-09T04:58:52;14.50;99.90
4487;DHT22;2256;48.740;9.106;2022-09-09T05:01:21;14.60;99.90
4487;DHT22;2256;48.740;9.106;2022-09-09T05:03:50;14.60;99.90
4487;DHT22;2256;48.740;9.106;2022-09-09T05:06:20;14.40;99.90
4487;DHT22;2256;48.740;9.106;2022-09-09T05:08:47;14.40;99.90
4487;DHT22;2256;48.740;9.106;2022-09-09T05:11:16;14.40;99.90
4487;DHT22;2256;48.740;9.106;2022-09-09T05:13:44;14.50;99.90
4487;DHT22;2256;48.740;9.106;2022-09-09T05:16:11;14.60;99.90
4487;DHT22;2256;48.740;9.106;2022-09-09T05:18:38;14.70;99.90
4487;DHT22;2256;48.740;9.106;2022-09-09T05:21:06;14.70;99.90
4487;DHT22;2256;48.740;9.106;2022-09-09T05:23:33;14.70;99.90
4487;DHT22;2256;48.740;9.106;2022-09-09T05:26:01;14.90;99.90
4487;DHT22;2256;48.740;9.106;2022-09-09T05:28:28;14.80;99.90
4487;DHT22;2256;48.740;9.106;2022-09-09T05:30:56;14.90;99.90
4487;DHT22;2256;48.740;9.106;2022-09-09T05:33:24;15.10;99.90
4487;DHT22;2256;48.740;9.106;2022-09-09T05:35:56;15.10;99.90
4487;DHT22;2256;48.740;9.106;2022-09-09T05:38:24;15.20;99.90
4487;DHT22;2256;48.740;9.106;2022-09-09T05:40:51;15.20;99.90
4487;DHT22;2256;48.740;9.106;2022-09-09T05:43:18;15.30;99.90
4487;DHT22;2256;48.740;9.106;2022-09-09T05:45:45;15.40;99.90
4487;DHT22;2256;48.740;9.106;2022-09-09T05:48:13;15.40;99.90
4487;DHT22;2256;48.740;9.106;2022-09-09T05:50:40;15.50;99.90
4487;DHT22;2256;48.740;9.106;2022-09-09T05:53:08;15.80;99.90
4487;DHT22;2256;48.740;9.106;2022-09-09T05:55:36;15.70;99.90
4487;DHT22;2256;48.740;9.106;2022-09-09T05:58:03;15.70;99.90
4487;DHT22;2256;48.740;9.106;2022-09-09T06:00:29;15.80;99.90
4487;DHT22;2256;48.740;9.106;2022-09-09T06:02:57;15.70;99.90
4487;DHT22;2256;48.740;9.106;2022-09-09T06:05:24;15.70;99.90
4487;DHT22;2256;48.740;9.106;2022-09-09T06:07:53;15.80;99.90
4487;DHT22;2256;48.740;9.106;2022-09-09T06:10:20;15.90;99.90
4487;DHT22;2256;48.740;9.106;2022-09-09T06:12:49;15.90;99.90
4487;DHT22;2256;48.740;9.106;2022-09-09T06:15:18;15.90;99.90
4487;DHT22;2256;48.740;9.106;2022-09-09T06:17:45;16.00;99.90
4487;DHT22;2256;48.740;9.106;2022-09-09T06:20:12;16.10;99.90
4487;DHT22;2256;48.740;9.106;2022-09-09T06:22:39;16.10;99.90
4487;DHT22;2256;48.740;9.106;2022-09-09T06:25:08;16.10;99.90
4487;DHT22;2256;48.740;9.106;2022-09-09T06:27:35;16.10;99.90
4487;DHT22;2256;48.740;9.106;2022-09-09T06:30:03;16.10;99.90
4487;DHT22;2256;48.740;9.106;2022-09-09T06:32:30;16.30;99.90
4487;DHT22;2256;48.740;9.106;2022-09-09T06:35:02;16.20;99.90
4487;DHT22;2256;48.740;9.106;2022-09-09T06:37:29;16.40;99.90
4487;DHT22;2256;48.740;9.106;2022-09-09T06:39:56;16.50;99.90
4487;DHT22;2256;48.740;9.106;2022-09-09T06:42:23;16.50;99.90
4487;DHT22;2256;48.740;9.106;2022-09-09T06:44:49;16.60;99.90
4487;DHT22;2256;48.740;9.106;2022-09-09T06:47:19;16.70;99.90
4487;DHT22;2256;48.740;9.106;2022-09-09T06:49:45;16.70;99.90
4487;DHT22;2256;48.740;9.106;2022-09-09T06:52:12;16.70;99.90
4487;DHT22;2256;48.740;9.106;2022-09-09T06:54:39;16.80;99.90
4487;DHT22;2256;48.740;9.106;2022-09-09T06:57:06;16.90;99.90
4487;DHT22;2256;48.740;9.106;2022-09-09T06:59:33;17.10;99.90
4487;DHT22;2256;48.740;9.106;2022-09-09T07:02:00;17.20;99.90
4487;DHT22;2256;48.740;9.106;2022-09-09T07:04:28;17.40;99.90
4487;DHT22;2256;48.740;9.106;2022-09-09T07:06:55;17.60;99.90
4487;DHT22;2256;48.740;9.106;2022-09-09T07:09:21;17.70;99.90
4487;DHT22;2256;48.740;9.106;2022-09-09T07:11:51;17.80;99.90
4487;DHT22;2256;48.740;9.106;2022-09-09T07:14:18;17.90;99.90
4487;DHT22;2256;48.740;9.106;2022-09-09T07:16:45;18.00;99.90
4487;DHT22;2256;48.740;9.106;2022-09-09T07:19:13;18.00;99.90
4487;DHT22;2256;48.740;9.106;2022-09-09T07:21:41;18.10;99.90
4487;DHT22;2256;48.740;9.106;2022-09-09T07:24:08;18.30;99.90
4487;DHT22;2256;48.740;9.106;2022-09-09T07:26:37;18.60;99.90
4487;DHT22;2256;48.740;9.106;2022-09-09T07:29:04;18.80;99.90
4487;DHT22;2256;48.740;9.106;2022-09-09T07:31:32;18.90;99.90
4487;DHT22;2256;48.740;9.106;2022-09-09T07:34:00;18.90;99.90
4487;DHT22;2256;48.740;9.106;2022-09-09T07:36:28;18.90;99.90
4487;DHT22;2256;48.740;9.106;2022-09-09T07:38:58;19.30;99.90
4487;DHT22;2256;48.740;9.106;2022-09-09T07:41:28;20.80;99.90
4487;DHT22;2256;48.740;9.106;2022-09-09T07:43:56;21.40;99.90
4487;DHT22;2256;48.740;9.106;2022-09-09T07:46:25;21.00;99.90
4487;DHT22;2256;48.740;9.106;2022-09-09T07:48:54;20.60;99.90
4487;DHT22;2256;48.740;9.106;2022-09-09T07:51:24;20.40;99.90
4487;DHT22;2256;48.740;9.106;2022-09-09T07:53:52;20.80;99.90
4487;DHT22;2256;48.740;9.106;2022-09-09T07:56:21;22.50;99.40
4487;DHT22;2256;48.740;9.106;2022-09-09T07:58:49;24.10;97.20
4487;DHT22;2256;48.740;9.106;2022-09-09T08:01:18;25.40;95.20
4487;DHT22;2256;48.740;9.106;2022-09-09T08:03:45;26.10;93.40
4487;DHT22;2256;48.740;9.106;2022-09-09T08:06:13;26.60;92.40
4487;DHT22;2256;48.740;9.106;2022-09-09T08:08:40;26.90;91.20
4487;DHT22;2256;48.740;9.106;2022-09-09T08:11:11;27.60;90.80
4487;DHT22;2256;48.740;9.106;2022-09-09T08:13:39;28.30;89.90
4487;DHT22;2256;48.740;9.106;2022-09-09T08:16:08;29.20;87.20
4487;DHT22;2256;48.740;9.106;2022-09-09T08:18:35;29.80;84.60
4487;DHT22;2256;48.740;9.106;2022-09-09T08:21:11;29.30;84.20
4487;DHT22;2256;48.740;9.106;2022-09-09T08:23:39;29.30;84.40
4487;DHT22;2256;48.740;9.106;2022-09-09T08:26:09;29.50;83.40
4487;DHT22;2256;48.740;9.106;2022-09-09T08:28:38;29.40;83.30
4487;DHT22;2256;48.740;9.106;2022-09-09T08:31:10;29.30;83.80
4487;DHT22;2256;48.740;9.106;2022-09-09T08:33:37;29.20;83.30
4487;DHT22;2256;48.740;9.106;2022-09-09T08:36:06;29.30;84.10
4487;DHT22;2256;48.740;9.106;2022-09-09T08:38:34;29.90;82.60
4487;DHT22;2256;48.740;9.106;2022-09-09T08:41:18;29.90;81.70
4487;DHT22;2256;48.740;9.106;2022-09-09T08:43:51;30.10;81.60
4487;DHT22;2256;48.740;9.106;2022-09-09T08:46:30;30.10;80.90
4487;DHT22;2256;48.740;9.106;2022-09-09T08:49:05;30.20;80.80
4487;DHT22;2256;48.740;9.106;2022-09-09T08:51:32;30.10;80.10
4487;DHT22;2256;48.740;9.106;2022-09-09T08:54:02;30.20;79.40
4487;DHT22;2256;48.740;9.106;2022-09-09T08:56:31;30.30;78.90
4487;DHT22;2256;48.740;9.106;2022-09-09T08:59:03;30.50;77.80
4487;DHT22;2256;48.740;9.106;2022-09-09T09:01:43;30.60;77.50
4487;DHT22;2256;48.740;9.106;2022-09-09T09:04:26;29.60;75.70
4487;DHT22;2256;48.740;9.106;2022-09-09T09:07:07;27.30;80.10
4487;DHT22;2256;48.740;9.106;2022-09-09T09:09:40;25.50;84.30
4487;DHT22;2256;48.740;9.106;2022-09-09T09:12:15;24.40;88.10
4487;DHT22;2256;48.740;9.106;2022-09-09T09:14:46;23.30;90.70
4487;DHT22;2256;48.740;9.106;2022-09-09T09:17:17;22.50;92.80
4487;DHT22;2256;48.740;9.106;2022-09-09T09:19:46;21.90;94.00
4487;DHT22;2256;48.740;9.106;2022-09-09T09:22:17;21.30;95.40
4487;DHT22;2256;48.740;9.106;2022-09-09T09:24:50;20.60;96.90
4487;DHT22;2256;48.740;9.106;2022-09-09T09:27:25;20.00;97.20
4487;DHT22;2256;48.740;9.106;2022-09-09T09:29:57;19.40;96.20
4487;DHT22;2256;48.740;9.106;2022-09-09T09:32:27;19.10;96.70
4487;DHT22;2256;48.740;9.106;2022-09-09T09:34:58;19.20;97.60
4487;DHT22;2256;48.740;9.106;2022-09-09T09:37:28;20.70;96.60
4487;DHT22;2256;48.740;9.106;2022-09-09T09:39:55;22.50;95.30
4487;DHT22;2256;48.740;9.106;2022-09-09T09:42:22;24.30;93.50
4487;DHT22;2256;48.740;9.106;2022-09-09T09:44:49;25.80;91.80
4487;DHT22;2256;48.740;9.106;2022-09-09T09:47:19;26.80;90.60
4487;DHT22;2256;48.740;9.106;2022-09-09T09:49:53;27.30;88.80
4487;DHT22;2256;48.740;9.106;2022-09-09T09:52:23;27.90;87.90
4487;DHT22;2256;48.740;9.106;2022-09-09T09:54:50;28.00;86.30
4487;DHT22;2256;48.740;9.106;2022-09-09T09:57:22;27.30;86.60
4487;DHT22;2256;48.740;9.106;2022-09-09T10:00:01;26.70;87.50
4487;DHT22;2256;48.740;9.106;2022-09-09T10:02:38;26.40;88.50
4487;DHT22;2256;48.740;9.106;2022-09-09T10:05:13;26.20;90.10
4487;DHT22;2256;48.740;9.106;2022-09-09T10:07:40;25.60;90.10
4487;DHT22;2256;48.740;9.106;2022-09-09T10:10:13;25.40;91.30
4487;DHT22;2256;48.740;9.106;2022-09-09T10:12:47;25.00;91.40
4487;DHT22;2256;48.740;9.106;2022-09-09T10:15:30;24.40;91.50
4487;DHT22;2256;48.740;9.106;2022-09-09T10:18:09;24.10;91.90
4487;DHT22;2256;48.740;9.106;2022-09-09T10:20:44;23.80;92.40
4487;DHT22;2256;48.740;9.106;2022-09-09T10:23:25;23.40;91.90
4487;DHT22;2256;48.740;9.106;2022-09-09T10:26:13;23.40;92.40
4487;DHT22;2256;48.740;9.106;2022-09-09T10:29:03;23.30;92.80
4487;DHT22;2256;48.740;9.106;2022-09-09T10:31:39;23.50;92.20
4487;DHT22;2256;48.740;9.106;2022-09-09T10:34:20;23.60;92.70
4487;DHT22;2256;48.740;9.106;2022-09-09T10:36:51;23.80;92.90
4487;DHT22;2256;48.740;9.106;2022-09-09T10:39:31;23.80;92.10
4487;DHT22;2256;48.740;9.106;2022-09-09T10:42:03;23.60;92.20
4487;DHT22;2256;48.740;9.106;2022-09-09T10:47:35;22.90;92.80
4487;DHT22;2256;48.740;9.106;2022-09-09T10:50:24;22.90;93.10
4487;DHT22;2256;48.740;9.106;2022-09-09T10:53:00;22.80;93.00
4487;DHT22;2256;48.740;9.106;2022-09-09T10:55:37;23.20;93.00
4487;DHT22;2256;48.740;9.106;2022-09-09T10:58:09;23.60;92.70
4487;DHT22;2256;48.740;9.106;2022-09-09T11:00:40;23.70;92.10
4487;DHT22;2256;48.740;9.106;2022-09-09T11:03:15;23.90;91.20
4487;DHT22;2256;48.740;9.106;2022-09-09T11:05:47;23.80;91.10
4487;DHT22;2256;48.740;9.106;2022-09-09T11:08:18;23.80;91.20
4487;DHT22;2256;48.740;9.106;2022-09-09T11:10:50;23.80;91.00
4487;DHT22;2256;48.740;9.106;2022-09-09T11:13:25;23.80;91.10
4487;DHT22;2256;48.740;9.106;2022-09-09T11:15:58;23.60;90.40
4487;DHT22;2256;48.740;9.106;2022-09-09T11:18:29;23.40;88.70
4487;DHT22;2256;48.740;9.106;2022-09-09T11:21:00;23.00;89.60
4487;DHT22;2256;48.740;9.106;2022-09-09T11:23:34;22.80;90.00
4487;DHT22;2256;48.740;9.106;2022-09-09T11:26:05;22.40;89.00
4487;DHT22;2256;48.740;9.106;2022-09-09T11:28:43;21.90;90.00
4487;DHT22;2256;48.740;9.106;2022-09-09T11:31:29;21.50;90.60
4487;DHT22;2256;48.740;9.106;2022-09-09T11:34:15;21.20;91.40
4487;DHT22;2256;48.740;9.106;2022-09-09T11:37:05;21.10;91.90
4487;DHT22;2256;48.740;9.106;2022-09-09T11:39:48;21.10;92.20
4487;DHT22;2256;48.740;9.106;2022-09-09T11:42:18;21.10;91.90
4487;DHT22;2256;48.740;9.106;2022-09-09T11:44:46;20.90;91.60
4487;DHT22;2256;48.740;9.106;2022-09-09T11:47:20;20.60;91.80
4487;DHT22;2256;48.740;9.106;2022-09-09T11:49:50;20.30;92.40
4487;DHT22;2256;48.740;9.106;2022-09-09T11:52:23;20.30;92.80
4487;DHT22;2256;48.740;9.106;2022-09-09T11:54:55;20.60;92.90
4487;DHT22;2256;48.740;9.106;2022-09-09T11:57:26;20.70;93.00
4487;DHT22;2256;48.740;9.106;2022-09-09T11:59:57;21.10;92.90
4487;DHT22;2256;48.740;9.106;2022-09-09T12:02:26;21.20;92.30
4487;DHT22;2256;48.740;9.106;2022-09-09T12:05:00;21.10;92.40
4487;DHT22;2256;48.740;9.106;2022-09-09T12:07:35;21.00;92.10
4487;DHT22;2256;48.740;9.106;2022-09-09T12:10:22;21.10;92.50
4487;DHT22;2256;48.740;9.106;2022-09-09T12:12:51;21.20;92.40
4487;DHT22;2256;48.740;9.106;2022-09-09T12:15:24;21.50;92.10
4487;DHT22;2256;48.740;9.106;2022-09-09T12:17:54;21.70;92.20
4487;DHT22;2256;48.740;9.106;2022-09-09T12:20:23;21.90;91.90
4487;DHT22;2256;48.740;9.106;2022-09-09T12:26:05;22.40;89.60
4487;DHT22;2256;48.740;9.106;2022-09-09T12:28:45;22.40;90.20
4487;DHT22;2256;48.740;9.106;2022-09-09T12:31:17;22.40;89.40
4487;DHT22;2256;48.740;9.106;2022-09-09T12:33:48;22.40;88.60
4487;DHT22;2256;48.740;9.106;2022-09-09T12:36:18;22.50;87.60
4487;DHT22;2256;48.740;9.106;2022-09-09T12:38:47;22.40;87.70
4487;DHT22;2256;48.740;9.106;2022-09-09T12:41:20;22.20;88.80
4487;DHT22;2256;48.740;9.106;2022-09-09T12:43:47;21.90;90.00
4487;DHT22;2256;48.740;9.106;2022-09-09T12:46:21;21.80;90.40
4487;DHT22;2256;48.740;9.106;2022-09-09T12:48:53;21.50;90.70
4487;DHT22;2256;48.740;9.106;2022-09-09T12:51:23;21.40;91.20
4487;DHT22;2256;48.740;9.106;2022-09-09T12:53:53;21.50;91.50
4487;DHT22;2256;48.740;9.106;2022-09-09T12:56:21;21.60;91.60
4487;DHT22;2256;48.740;9.106;2022-09-09T12:58:50;21.70;91.00
4487;DHT22;2256;48.740;9.106;2022-09-09T13:01:21;21.50;91.20
4487;DHT22;2256;48.740;9.106;2022-09-09T13:03:49;21.20;91.10
4487;DHT22;2256;48.740;9.106;2022-09-09T13:06:20;21.00;91.80
4487;DHT22;2256;48.740;9.106;2022-09-09T13:08:48;21.00;92.10
4487;DHT22;2256;48.740;9.106;2022-09-09T13:11:19;21.20;92.00
4487;DHT22;2256;48.740;9.106;2022-09-09T13:13:51;21.40;91.80
4487;DHT22;2256;48.740;9.106;2022-09-09T13:16:20;21.40;91.60
4487;DHT22;2256;48.740;9.106;2022-09-09T13:18:48;21.70;91.50
4487;DHT22;2256;48.740;9.106;2022-09-09T13:21:15;22.20;91.00
4487;DHT22;2256;48.740;9.106;2022-09-09T13:23:42;22.30;90.40
4487;DHT22;2256;48.740;9.106;2022-09-09T13:26:24;22.30;89.70
4487;DHT22;2256;48.740;9.106;2022-09-09T13:28:51;22.70;90.40
4487;DHT22;2256;48.740;9.106;2022-09-09T13:31:21;23.10;87.90
4487;DHT22;2256;48.740;9.106;2022-09-09T13:33:49;23.30;87.50
4487;DHT22;2256;48.740;9.106;2022-09-09T13:36:15;23.30;85.40
4487;DHT22;2256;48.740;9.106;2022-09-09T13:38:54;23.20;85.60
4487;DHT22;2256;48.740;9.106;2022-09-09T13:41:24;22.90;86.00
4487;DHT22;2256;48.740;9.106;2022-09-09T13:43:52;22.60;86.50
4487;DHT22;2256;48.740;9.106;2022-09-09T13:46:27;22.30;87.50
4487;DHT22;2256;48.740;9.106;2022-09-09T13:48:56;22.30;87.80
4487;DHT22;2256;48.740;9.106;2022-09-09T13:51:32;22.50;88.30
4487;DHT22;2256;48.740;9.106;2022-09-09T13:54:00;22.70;87.60
4487;DHT22;2256;48.740;9.106;2022-09-09T13:56:28;22.90;86.30
4487;DHT22;2256;48.740;9.106;2022-09-09T13:58:54;23.10;86.00
4487;DHT22;2256;48.740;9.106;2022-09-09T14:01:22;23.30;85.50
4487;DHT22;2256;48.740;9.106;2022-09-09T14:03:49;23.50;84.90
4487;DHT22;2256;48.740;9.106;2022-09-09T14:06:16;23.60;84.10
4487;DHT22;2256;48.740;9.106;2022-09-09T14:08:44;23.60;83.80
4487;DHT22;2256;48.740;9.106;2022-09-09T14:11:13;23.60;83.80
4487;DHT22;2256;48.740;9.106;2022-09-09T14:13:42;23.60;84.50
4487;DHT22;2256;48.740;9.106;2022-09-09T14:16:09;23.50;83.80
4487;DHT22;2256;48.740;9.106;2022-09-09T14:18:37;23.40;84.10
4487;DHT22;2256;48.740;9.106;2022-09-09T14:21:04;23.20;84.40
4487;DHT22;2256;48.740;9.106;2022-09-09T14:23:31;22.70;84.10
4487;DHT22;2256;48.740;9.106;2022-09-09T14:25:58;22.40;83.50
4487;DHT22;2256;48.740;9.106;2022-09-09T14:28:24;22.10;84.30
4487;DHT22;2256;48.740;9.106;2022-09-09T14:30:53;22.00;84.40
4487;DHT22;2256;48.740;9.106;2022-09-09T14:33:20;22.00;84.30
4487;DHT22;2256;48.740;9.106;2022-09-09T14:35:46;21.90;85.00
4487;DHT22;2256;48.740;9.106;2022-09-09T14:38:14;21.70;84.60
4487;DHT22;2256;48.740;9.106;2022-09-09T14:40:40;21.50;85.40
4487;DHT22;2256;48.740;9.106;2022-09-09T14:43:09;21.70;85.60
4487;DHT22;2256;48.740;9.106;2022-09-09T14:45:37;21.90;83.80
4487;DHT22;2256;48.740;9.106;2022-09-09T14:48:05;22.00;83.50
4487;DHT22;2256;48.740;9.106;2022-09-09T14:50:32;22.30;83.60
4487;DHT22;2256;48.740;9.106;2022-09-09T14:53:00;22.50;83.40
4487;DHT22;2256;48.740;9.106;2022-09-09T14:55:27;22.60;83.10
4487;DHT22;2256;48.740;9.106;2022-09-09T14:57:54;22.50;83.00
4487;DHT22;2256;48.740;9.106;2022-09-09T15:00:21;22.60;83.70
4487;DHT22;2256;48.740;9.106;2022-09-09T15:02:48;22.40;82.30
4487;DHT22;2256;48.740;9.106;2022-09-09T15:05:19;22.10;83.00
4487;DHT22;2256;48.740;9.106;2022-09-09T15:07:46;22.10;83.30
4487;DHT22;2256;48.740;9.106;2022-09-09T15:10:14;22.10;84.00
4487;DHT22;2256;48.740;9.106;2022-09-09T15:12:42;21.90;83.30
4487;DHT22;2256;48.740;9.106;2022-09-09T15:15:09;21.70;83.60
4487;DHT22;2256;48.740;9.106;2022-09-09T15:17:36;21.60;85.40
4487;DHT22;2256;48.740;9.106;2022-09-09T15:20:03;21.50;84.40
4487;DHT22;2256;48.740;9.106;2022-09-09T15:22:32;21.40;85.00
4487;DHT22;2256;48.740;9.106;2022-09-09T15:24:59;21.40;86.00
4487;DHT22;2256;48.740;9.106;2022-09-09T15:27:26;21.70;85.10
4487;DHT22;2256;48.740;9.106;2022-09-09T15:29:52;21.80;85.30
4487;DHT22;2256;48.740;9.106;2022-09-09T15:32:19;22.20;85.10
4487;DHT22;2256;48.740;9.106;2022-09-09T15:34:46;22.30;83.50
4487;DHT22;2256;48.740;9.106;2022-09-09T15:37:12;22.30;83.90
4487;DHT22;2256;48.740;9.106;2022-09-09T15:39:41;22.20;84.00
4487;DHT22;2256;48.740;9.106;2022-09-09T15:42:07;21.90;84.60
4487;DHT22;2256;48.740;9.106;2022-09-09T15:44:39;21.70;84.90
4487;DHT22;2256;48.740;9.106;2022-09-09T15:47:07;21.40;85.50
4487;DHT22;2256;48.740;9.106;2022-09-09T15:49:37;21.10;84.40
4487;DHT22;2256;48.740;9.106;2022-09-09T15:52:04;20.90;83.80
4487;DHT22;2256;48.740;9.106;2022-09-09T15:54:32;20.70;84.60
4487;DHT22;2256;48.740;9.106;2022-09-09T15:57:03;20.60;84.70
4487;DHT22;2256;48.740;9.106;2022-09-09T15:59:30;20.40;84.80
4487;DHT22;2256;48.740;9.106;2022-09-09T16:01:59;20.30;85.00
4487;DHT22;2256;48.740;9.106;2022-09-09T16:04:27;20.30;85.10
4487;DHT22;2256;48.740;9.106;2022-09-09T16:06:56;20.20;85.70
4487;DHT22;2256;48.740;9.106;2022-09-09T16:09:24;20.30;86.50
4487;DHT22;2256;48.740;9.106;2022-09-09T16:11:51;20.20;86.50
4487;DHT22;2256;48.740;9.106;2022-09-09T16:14:19;20.10;85.90
4487;DHT22;2256;48.740;9.106;2022-09-09T16:16:47;20.10;86.00
4487;DHT22;2256;48.740;9.106;2022-09-09T16:19:14;20.10;87.00
4487;DHT22;2256;48.740;9.106;2022-09-09T16:21:43;20.10;86.70
4487;DHT22;2256;48.740;9.106;2022-09-09T16:24:12;20.10;87.30
4487;DHT22;2256;48.740;9.106;2022-09-09T16:26:42;19.90;88.80
4487;DHT22;2256;48.740;9.106;2022-09-09T16:29:10;19.90;88.50
4487;DHT22;2256;48.740;9.106;2022-09-09T16:31:38;19.90;88.20